sensor_id;sensor_type;location;lat;lon;timestamp;temperature;humidity
23405;DHT22;11875;49.356;2.718;2023-02-15T00:00:21;5.80;99.90
23405;DHT22;11875;49.356;2.718;2023-02-15T00:02:47;5.70;99.90
23405;DHT22;11875;49.356;2.718;2023-02-15T00:05:12;5.70;99.90
23405;DHT22;11875;49.356;2.718;2023-02-15T00:07:38;5.60;99.90
23405;DHT22;11875;49.356;2.718;2023-02-15T00:10:04;5.60;99.90
23405;DHT22;11875;49.356;2.718;2023-02-15T00:12:30;5.60;99.90
23405;DHT22;11875;49.356;2.718;2023-02-15T00:14:56;5.50;99.90
23405;DHT22;11875;49.356;2.718;2023-02-15T00:17:21;5.50;99.90
23405;DHT22;11875;49.356;2.718;2023-02-15T00:19:47;5.50;99.90
23405;DHT22;11875;49.356;2.718;2023-02-15T00:22:13;5.40;99.90
23405;DHT22;11875;49.356;2.718;2023-02-15T00:24:38;5.40;99.90
23405;DHT22;11875;49.356;2.718;2023-02-15T00:27:04;5.30;99.90
23405;DHT22;11875;49.356;2.718;2023-02-15T00:29:29;5.30;99.90
23405;DHT22;11875;49.356;2.718;2023-02-15T00:31:55;5.30;99.90
23405;DHT22;11875;49.356;2.718;2023-02-15T00:34:26;5.30;99.90
23405;DHT22;11875;49.356;2.718;2023-02-15T00:36:52;5.20;99.90
23405;DHT22;11875;49.356;2.718;2023-02-15T00:39:18;5.20;99.90
23405;DHT22;11875;49.356;2.718;2023-02-15T00:41:45;5.20;99.90
23405;DHT22;11875;49.356;2.718;2023-02-15T00:44:11;5.20;99.90
23405;DHT22;11875;49.356;2.718;2023-02-15T00:46:37;5.10;99.90
23405;DHT22;11875;49.356;2.718;2023-02-15T00:49:03;5.00;99.90
23405;DHT22;11875;49.356;2.718;2023-02-15T00:51:29;5.00;99.90
23405;DHT22;11875;49.356;2.718;2023-02-15T00:53:55;5.00;99.90
23405;DHT22;11875;49.356;2.718;2023-02-15T00:56:21;5.00;99.90
23405;DHT22;11875;49.356;2.718;2023-02-15T00:58:46;5.00;99.90
23405;DHT22;11875;49.356;2.718;2023-02-15T01:01:15;5.00;99.90
23405;DHT22;11875;49.356;2.718;2023-02-15T01:03:41;5.00;99.90
23405;DHT22;11875;49.356;2.718;2023-02-15T01:06:11;5.00;99.90
23405;DHT22;11875;49.356;2.718;2023-02-15T01:08:37;5.90;99.90
23405;DHT22;11875;49.356;2.718;2023-02-15T01:11:23;5.50;99.90
23405;DHT22;11875;49.356;2.718;2023-02-15T01:13:56;4.90;99.90
23405;DHT22;11875;49.356;2.718;2023-02-15T01:16:23;4.90;99.90
23405;DHT22;11875;49.356;2.718;2023-02-15T01:18:50;4.80;99.90
23405;DHT22;11875;49.356;2.718;2023-02-15T01:21:19;5.90;99.90
23405;DHT22;11875;49.356;2.718;2023-02-15T01:23:45;4.70;99.90
23405;DHT22;11875;49.356;2.718;2023-02-15T01:26:11;4.70;99.90
23405;DHT22;11875;49.356;2.718;2023-02-15T01:28:38;4.80;99.90
23405;DHT22;11875;49.356;2.718;2023-02-15T01:31:09;4.60;99.90
23405;DHT22;11875;49.356;2.718;2023-02-15T01:33:35;4.70;99.90
23405;DHT22;11875;49.356;2.718;2023-02-15T01:36:02;4.60;99.90
23405;DHT22;11875;49.356;2.718;2023-02-15T01:38:27;4.50;99.90
23405;DHT22;11875;49.356;2.718;2023-02-15T01:40:54;4.50;99.90
23405;DHT22;11875;49.356;2.718;2023-02-15T01:43:47;4.50;99.90
23405;DHT22;11875;49.356;2.718;2023-02-15T01:46:14;4.40;99.90
23405;DHT22;11875;49.356;2.718;2023-02-15T01:48:50;4.40;99.90
23405;DHT22;11875;49.356;2.718;2023-02-15T01:51:19;4.40;99.90
23405;DHT22;11875;49.356;2.718;2023-02-15T01:53:53;4.40;99.90
23405;DHT22;11875;49.356;2.718;2023-02-15T01:56:25;4.30;99.90
23405;DHT22;11875;49.356;2.718;2023-02-15T01:58:54;5.40;99.90
23405;DHT22;11875;49.356;2.718;2023-02-15T02:01:24;4.40;99.90
23405;DHT22;11875;49.356;2.718;2023-02-15T02:06:36;4.30;99.90
23405;DHT22;11875;49.356;2.718;2023-02-15T02:09:03;4.30;99.90
23405;DHT22;11875;49.356;2.718;2023-02-15T02:11:29;4.40;99.90
23405;DHT22;11875;49.356;2.718;2023-02-15T02:13:55;4.40;99.90
23405;DHT22;11875;49.356;2.718;2023-02-15T02:16:35;4.30;99.90
23405;DHT22;11875;49.356;2.718;2023-02-15T02:31:01;4.10;99.90
23405;DHT22;11875;49.356;2.718;2023-02-15T02:33:39;4.10;99.90
23405;DHT22;11875;49.356;2.718;2023-02-15T02:36:20;4.00;99.90
23405;DHT22;11875;49.356;2.718;2023-02-15T02:41:32;3.90;99.90
23405;DHT22;11875;49.356;2.718;2023-02-15T02:44:51;3.90;99.90
23405;DHT22;11875;49.356;2.718;2023-02-15T02:49:57;3.80;99.90
23405;DHT22;11875;49.356;2.718;2023-02-15T02:55:07;3.80;99.90
23405;DHT22;11875;49.356;2.718;2023-02-15T02:57:37;3.70;99.90
23405;DHT22;11875;49.356;2.718;2023-02-15T03:00:06;3.60;99.90
23405;DHT22;11875;49.356;2.718;2023-02-15T03:02:37;3.60;99.90
23405;DHT22;11875;49.356;2.718;2023-02-15T03:05:08;3.50;99.90
23405;DHT22;11875;49.356;2.718;2023-02-15T03:07:35;3.50;99.90
23405;DHT22;11875;49.356;2.718;2023-02-15T03:10:04;3.40;99.90
23405;DHT22;11875;49.356;2.718;2023-02-15T03:12:36;3.40;99.90
23405;DHT22;11875;49.356;2.718;2023-02-15T03:15:24;3.40;99.90
23405;DHT22;11875;49.356;2.718;2023-02-15T03:17:59;3.40;99.90
23405;DHT22;11875;49.356;2.718;2023-02-15T03:20:33;3.40;99.90
23405;DHT22;11875;49.356;2.718;2023-02-15T03:23:06;3.40;99.90
23405;DHT22;11875;49.356;2.718;2023-02-15T03:25:42;4.50;99.90
23405;DHT22;11875;49.356;2.718;2023-02-15T03:28:13;3.40;99.90
23405;DHT22;11875;49.356;2.718;2023-02-15T03:30:43;3.40;99.90
23405;DHT22;11875;49.356;2.718;2023-02-15T03:33:11;3.50;99.90
23405;DHT22;11875;49.356;2.718;2023-02-15T03:35:53;3.50;99.90
23405;DHT22;11875;49.356;2.718;2023-02-15T03:38:28;3.50;99.90
23405;DHT22;11875;49.356;2.718;2023-02-15T03:40:57;3.50;99.90
23405;DHT22;11875;49.356;2.718;2023-02-15T03:43:56;3.30;99.90
23405;DHT22;11875;49.356;2.718;2023-02-15T03:46:28;3.30;99.90
23405;DHT22;11875;49.356;2.718;2023-02-15T03:49:21;3.20;99.90
23405;DHT22;11875;49.356;2.718;2023-02-15T03:51:49;3.20;99.90
23405;DHT22;11875;49.356;2.718;2023-02-15T03:57:07;4.50;99.90
23405;DHT22;11875;49.356;2.718;2023-02-15T03:59:53;3.30;99.90
23405;DHT22;11875;49.356;2.718;2023-02-15T04:05:31;3.30;99.90
23405;DHT22;11875;49.356;2.718;2023-02-15T04:07:57;3.30;99.90
23405;DHT22;11875;49.356;2.718;2023-02-15T04:10:22;3.30;99.90
23405;DHT22;11875;49.356;2.718;2023-02-15T04:13:07;3.30;99.90
23405;DHT22;11875;49.356;2.718;2023-02-15T04:15:32;3.20;99.90
23405;DHT22;11875;49.356;2.718;2023-02-15T04:18:17;3.20;99.90
23405;DHT22;11875;49.356;2.718;2023-02-15T04:20:46;3.30;99.90
23405;DHT22;11875;49.356;2.718;2023-02-15T04:23:31;3.30;99.90
23405;DHT22;11875;49.356;2.718;2023-02-15T04:26:15;3.40;99.90
23405;DHT22;11875;49.356;2.718;2023-02-15T04:28:41;3.20;99.90
23405;DHT22;11875;49.356;2.718;2023-02-15T04:31:06;3.20;99.90
23405;DHT22;11875;49.356;2.718;2023-02-15T04:33:32;3.20;99.90
23405;DHT22;11875;49.356;2.718;2023-02-15T04:35:58;3.20;99.90
23405;DHT22;11875;49.356;2.718;2023-02-15T04:38:23;3.20;99.90
23405;DHT22;11875;49.356;2.718;2023-02-15T04:40:50;3.20;99.90
23405;DHT22;11875;49.356;2.718;2023-02-15T04:43:16;3.20;99.90
23405;DHT22;11875;49.356;2.718;2023-02-15T04:45:50;3.20;99.90
23405;DHT22;11875;49.356;2.718;2023-02-15T04:48:17;3.00;99.90
23405;DHT22;11875;49.356;2.718;2023-02-15T04:50:43;3.00;99.90
23405;DHT22;11875;49.356;2.718;2023-02-15T04:53:09;3.00;99.90
23405;DHT22;11875;49.356;2.718;2023-02-15T04:55:35;3.00;99.90
23405;DHT22;11875;49.356;2.718;2023-02-15T04:58:00;2.00;99.90
23405;DHT22;11875;49.356;2.718;2023-02-15T05:00:26;2.90;99.90
23405;DHT22;11875;49.356;2.718;2023-02-15T05:02:52;3.00;99.90
23405;DHT22;11875;49.356;2.718;2023-02-15T05:05:18;3.00;99.90
23405;DHT22;11875;49.356;2.718;2023-02-15T05:07:44;2.90;99.90
23405;DHT22;11875;49.356;2.718;2023-02-15T05:10:10;3.90;99.90
23405;DHT22;11875;49.356;2.718;2023-02-15T05:12:36;3.00;99.90
23405;DHT22;11875;49.356;2.718;2023-02-15T05:15:01;2.90;99.90
23405;DHT22;11875;49.356;2.718;2023-02-15T05:17:27;2.80;99.90
23405;DHT22;11875;49.356;2.718;2023-02-15T05:19:52;2.80;99.90
23405;DHT22;11875;49.356;2.718;2023-02-15T05:22:18;2.80;99.90
23405;DHT22;11875;49.356;2.718;2023-02-15T05:24:44;2.70;99.90
23405;DHT22;11875;49.356;2.718;2023-02-15T05:27:28;2.70;99.90
23405;DHT22;11875;49.356;2.718;2023-02-15T05:30:12;2.60;99.90
23405;DHT22;11875;49.356;2.718;2023-02-15T05:32:39;2.50;99.90
23405;DHT22;11875;49.356;2.718;2023-02-15T05:35:06;2.60;99.90
23405;DHT22;11875;49.356;2.718;2023-02-15T05:37:32;2.30;99.90
23405;DHT22;11875;49.356;2.718;2023-02-15T05:39:57;2.20;99.90
23405;DHT22;11875;49.356;2.718;2023-02-15T05:42:23;2.10;99.90
23405;DHT22;11875;49.356;2.718;2023-02-15T05:44:49;2.20;99.90
23405;DHT22;11875;49.356;2.718;2023-02-15T05:47:14;3.20;99.90
23405;DHT22;11875;49.356;2.718;2023-02-15T05:49:40;2.10;99.90
23405;DHT22;11875;49.356;2.718;2023-02-15T05:52:05;2.10;99.90
23405;DHT22;11875;49.356;2.718;2023-02-15T05:54:31;2.70;99.90
23405;DHT22;11875;49.356;2.718;2023-02-15T05:56:57;2.30;99.90
23405;DHT22;11875;49.356;2.718;2023-02-15T05:59:22;2.40;99.90
23405;DHT22;11875;49.356;2.718;2023-02-15T06:01:48;2.40;99.90
23405;DHT22;11875;49.356;2.718;2023-02-15T06:04:13;2.40;99.90
23405;DHT22;11875;49.356;2.718;2023-02-15T06:06:39;2.50;99.90
23405;DHT22;11875;49.356;2.718;2023-02-15T06:09:05;2.40;99.90
23405;DHT22;11875;49.356;2.718;2023-02-15T06:11:31;2.40;99.90
23405;DHT22;11875;49.356;2.718;2023-02-15T06:13:56;2.40;99.90
23405;DHT22;11875;49.356;2.718;2023-02-15T06:16:22;2.60;99.90
23405;DHT22;11875;49.356;2.718;2023-02-15T06:18:48;2.40;99.90
23405;DHT22;11875;49.356;2.718;2023-02-15T06:21:13;2.40;99.90
23405;DHT22;11875;49.356;2.718;2023-02-15T06:23:39;2.40;99.90
23405;DHT22;11875;49.356;2.718;2023-02-15T06:26:05;2.40;99.90
23405;DHT22;11875;49.356;2.718;2023-02-15T06:28:30;2.50;99.90
23405;DHT22;11875;49.356;2.718;2023-02-15T06:30:56;2.50;99.90
23405;DHT22;11875;49.356;2.718;2023-02-15T06:33:22;2.40;99.90
23405;DHT22;11875;49.356;2.718;2023-02-15T06:35:48;2.40;99.90
23405;DHT22;11875;49.356;2.718;2023-02-15T06:38:14;2.30;99.90
23405;DHT22;11875;49.356;2.718;2023-02-15T06:40:39;2.40;99.90
23405;DHT22;11875;49.356;2.718;2023-02-15T06:43:05;2.30;99.90
23405;DHT22;11875;49.356;2.718;2023-02-15T06:45:31;2.40;99.90
23405;DHT22;11875;49.356;2.718;2023-02-15T06:47:56;2.40;99.90
23405;DHT22;11875;49.356;2.718;2023-02-15T06:50:22;2.40;99.90
23405;DHT22;11875;49.356;2.718;2023-02-15T06:52:48;2.40;99.90
23405;DHT22;11875;49.356;2.718;2023-02-15T06:55:13;2.40;99.90
23405;DHT22;11875;49.356;2.718;2023-02-15T06:57:39;2.30;99.90
23405;DHT22;11875;49.356;2.718;2023-02-15T07:00:05;2.20;99.90
23405;DHT22;11875;49.356;2.718;2023-02-15T07:02:31;2.30;99.90
23405;DHT22;11875;49.356;2.718;2023-02-15T07:04:57;2.20;99.90
23405;DHT22;11875;49.356;2.718;2023-02-15T07:07:22;2.20;99.90
23405;DHT22;11875;49.356;2.718;2023-02-15T07:09:48;2.00;99.90
23405;DHT22;11875;49.356;2.718;2023-02-15T07:12:13;2.10;99.90
23405;DHT22;11875;49.356;2.718;2023-02-15T07:14:57;2.10;99.90
23405;DHT22;11875;49.356;2.718;2023-02-15T07:17:24;2.00;99.90
23405;DHT22;11875;49.356;2.718;2023-02-15T07:19:54;2.10;99.90
23405;DHT22;11875;49.356;2.718;2023-02-15T07:22:19;2.00;99.90
23405;DHT22;11875;49.356;2.718;2023-02-15T07:24:45;2.00;99.90
23405;DHT22;11875;49.356;2.718;2023-02-15T07:27:10;1.90;99.90
23405;DHT22;11875;49.356;2.718;2023-02-15T07:29:36;1.90;99.90
23405;DHT22;11875;49.356;2.718;2023-02-15T07:32:01;2.00;99.90
23405;DHT22;11875;49.356;2.718;2023-02-15T07:34:27;2.10;99.90
23405;DHT22;11875;49.356;2.718;2023-02-15T07:36:53;2.10;99.90
23405;DHT22;11875;49.356;2.718;2023-02-15T07:39:19;2.00;99.90
23405;DHT22;11875;49.356;2.718;2023-02-15T07:41:44;2.10;99.90
23405;DHT22;11875;49.356;2.718;2023-02-15T07:44:12;2.10;99.90
23405;DHT22;11875;49.356;2.718;2023-02-15T07:46:38;2.60;99.90
23405;DHT22;11875;49.356;2.718;2023-02-15T07:49:04;2.90;99.90
23405;DHT22;11875;49.356;2.718;2023-02-15T07:51:30;2.10;99.90
23405;DHT22;11875;49.356;2.718;2023-02-15T07:53:55;2.20;99.90
23405;DHT22;11875;49.356;2.718;2023-02-15T07:56:21;2.10;99.90
23405;DHT22;11875;49.356;2.718;2023-02-15T07:58:47;2.10;99.90
23405;DHT22;11875;49.356;2.718;2023-02-15T08:01:20;2.10;99.90
23405;DHT22;11875;49.356;2.718;2023-02-15T08:03:46;2.10;99.90
23405;DHT22;11875;49.356;2.718;2023-02-15T08:06:12;2.20;99.90
23405;DHT22;11875;49.356;2.718;2023-02-15T08:08:39;2.70;99.90
23405;DHT22;11875;49.356;2.718;2023-02-15T08:16:49;2.10;99.90
23405;DHT22;11875;49.356;2.718;2023-02-15T08:19:17;2.20;99.90
23405;DHT22;11875;49.356;2.718;2023-02-15T08:21:51;2.20;99.90
23405;DHT22;11875;49.356;2.718;2023-02-15T08:24:19;2.80;99.90
23405;DHT22;11875;49.356;2.718;2023-02-15T08:26:46;1.70;99.90
23405;DHT22;11875;49.356;2.718;2023-02-15T08:29:14;2.50;99.90
23405;DHT22;11875;49.356;2.718;2023-02-15T08:31:41;2.60;99.90
23405;DHT22;11875;49.356;2.718;2023-02-15T08:34:09;2.70;99.90
23405;DHT22;11875;49.356;2.718;2023-02-15T08:36:35;2.70;99.90
23405;DHT22;11875;49.356;2.718;2023-02-15T08:39:03;2.70;99.90
23405;DHT22;11875;49.356;2.718;2023-02-15T08:41:34;2.80;99.90
23405;DHT22;11875;49.356;2.718;2023-02-15T08:44:03;2.90;99.90
23405;DHT22;11875;49.356;2.718;2023-02-15T08:46:31;3.00;99.90
23405;DHT22;11875;49.356;2.718;2023-02-15T08:48:57;3.10;99.90
23405;DHT22;11875;49.356;2.718;2023-02-15T08:51:25;3.20;99.90
23405;DHT22;11875;49.356;2.718;2023-02-15T08:53:55;3.20;99.90
23405;DHT22;11875;49.356;2.718;2023-02-15T08:56:29;3.20;99.90
23405;DHT22;11875;49.356;2.718;2023-02-15T08:58:57;3.20;99.90
23405;DHT22;11875;49.356;2.718;2023-02-15T09:01:25;3.10;99.90
23405;DHT22;11875;49.356;2.718;2023-02-15T09:03:55;3.20;99.90
23405;DHT22;11875;49.356;2.718;2023-02-15T09:06:22;3.20;99.90
23405;DHT22;11875;49.356;2.718;2023-02-15T09:08:48;3.30;99.90
23405;DHT22;11875;49.356;2.718;2023-02-15T09:11:17;3.30;99.90
23405;DHT22;11875;49.356;2.718;2023-02-15T09:13:48;3.40;99.90
23405;DHT22;11875;49.356;2.718;2023-02-15T09:16:14;3.40;99.90
23405;DHT22;11875;49.356;2.718;2023-02-15T09:18:42;3.40;99.90
23405;DHT22;11875;49.356;2.718;2023-02-15T09:21:14;3.50;99.90
23405;DHT22;11875;49.356;2.718;2023-02-15T09:23:44;3.50;99.90
23405;DHT22;11875;49.356;2.718;2023-02-15T09:26:12;3.60;99.90
23405;DHT22;11875;49.356;2.718;2023-02-15T09:28:38;3.40;99.90
23405;DHT22;11875;49.356;2.718;2023-02-15T09:31:22;3.60;99.90
23405;DHT22;11875;49.356;2.718;2023-02-15T09:33:48;3.70;99.90
23405;DHT22;11875;49.356;2.718;2023-02-15T09:38:47;3.90;99.90
23405;DHT22;11875;49.356;2.718;2023-02-15T10:18:39;5.40;99.90
23405;DHT22;11875;49.356;2.718;2023-02-15T10:24:17;5.70;99.90
23405;DHT22;11875;49.356;2.718;2023-02-15T10:26:47;5.90;99.90
23405;DHT22;11875;49.356;2.718;2023-02-15T10:29:37;6.00;99.90
23405;DHT22;11875;49.356;2.718;2023-02-15T10:32:26;6.00;99.90
23405;DHT22;11875;49.356;2.718;2023-02-15T10:35:34;6.00;99.90
23405;DHT22;11875;49.356;2.718;2023-02-15T10:43:56;6.40;99.90
23405;DHT22;11875;49.356;2.718;2023-02-15T10:49:19;6.20;99.90
23405;DHT22;11875;49.356;2.718;2023-02-15T10:57:34;6.50;99.90
23405;DHT22;11875;49.356;2.718;2023-02-15T11:00:07;6.60;99.90
23405;DHT22;11875;49.356;2.718;2023-02-15T11:02:49;6.80;99.90
23405;DHT22;11875;49.356;2.718;2023-02-15T11:08:10;7.00;99.90
23405;DHT22;11875;49.356;2.718;2023-02-15T11:10:41;7.10;99.90
23405;DHT22;11875;49.356;2.718;2023-02-15T11:13:16;7.30;99.90
23405;DHT22;11875;49.356;2.718;2023-02-15T11:15:53;7.30;99.90
23405;DHT22;11875;49.356;2.718;2023-02-15T11:18:32;7.40;99.90
23405;DHT22;11875;49.356;2.718;2023-02-15T11:23:26;7.70;99.90
23405;DHT22;11875;49.356;2.718;2023-02-15T11:25:57;7.70;99.90
23405;DHT22;11875;49.356;2.718;2023-02-15T11:28:47;7.80;99.90
23405;DHT22;11875;49.356;2.718;2023-02-15T11:31:20;7.90;99.90
23405;DHT22;11875;49.356;2.718;2023-02-15T11:33:55;7.80;99.90
23405;DHT22;11875;49.356;2.718;2023-02-15T11:36:25;8.00;99.90
23405;DHT22;11875;49.356;2.718;2023-02-15T11:38:58;8.10;99.90
23405;DHT22;11875;49.356;2.718;2023-02-15T11:41:28;8.80;99.90
23405;DHT22;11875;49.356;2.718;2023-02-15T11:44:05;8.40;99.90
23405;DHT22;11875;49.356;2.718;2023-02-15T11:46:31;8.60;99.90
23405;DHT22;11875;49.356;2.718;2023-02-15T11:48:57;8.50;99.90
23405;DHT22;11875;49.356;2.718;2023-02-15T11:51:24;8.60;99.90
23405;DHT22;11875;49.356;2.718;2023-02-15T11:53:52;8.80;99.90
23405;DHT22;11875;49.356;2.718;2023-02-15T11:56:23;9.00;99.90
23405;DHT22;11875;49.356;2.718;2023-02-15T11:59:27;9.20;99.90
23405;DHT22;11875;49.356;2.718;2023-02-15T12:01:55;9.30;99.90
23405;DHT22;11875;49.356;2.718;2023-02-15T12:04:41;9.50;99.90
23405;DHT22;11875;49.356;2.718;2023-02-15T12:12:31;9.80;99.90
23405;DHT22;11875;49.356;2.718;2023-02-15T12:14:59;9.80;99.90
23405;DHT22;11875;49.356;2.718;2023-02-15T12:17:31;9.90;99.90
23405;DHT22;11875;49.356;2.718;2023-02-15T12:22:54;10.20;99.90
23405;DHT22;11875;49.356;2.718;2023-02-15T12:25:37;10.40;99.90
23405;DHT22;11875;49.356;2.718;2023-02-15T12:28:21;10.40;99.90
23405;DHT22;11875;49.356;2.718;2023-02-15T12:30:48;10.50;99.90
23405;DHT22;11875;49.356;2.718;2023-02-15T12:36:02;10.80;99.90
23405;DHT22;11875;49.356;2.718;2023-02-15T12:38:29;10.70;99.90
23405;DHT22;11875;49.356;2.718;2023-02-15T12:41:03;11.00;99.90
23405;DHT22;11875;49.356;2.718;2023-02-15T12:46:24;11.30;99.90
23405;DHT22;11875;49.356;2.718;2023-02-15T12:52:02;11.20;99.90
23405;DHT22;11875;49.356;2.718;2023-02-15T12:54:42;11.10;99.90
23405;DHT22;11875;49.356;2.718;2023-02-15T13:00:05;11.60;99.90
23405;DHT22;11875;49.356;2.718;2023-02-15T13:02:49;11.60;99.90
23405;DHT22;11875;49.356;2.718;2023-02-15T13:05:35;11.70;99.90
23405;DHT22;11875;49.356;2.718;2023-02-15T13:08:26;11.80;99.90
23405;DHT22;11875;49.356;2.718;2023-02-15T13:13:34;11.80;99.90
23405;DHT22;11875;49.356;2.718;2023-02-15T13:16:12;11.80;99.90
23405;DHT22;11875;49.356;2.718;2023-02-15T13:18:42;11.80;99.90
23405;DHT22;11875;49.356;2.718;2023-02-15T13:21:23;11.80;99.90
23405;DHT22;11875;49.356;2.718;2023-02-15T13:23:58;11.90;99.90
23405;DHT22;11875;49.356;2.718;2023-02-15T13:26:28;11.90;99.90
23405;DHT22;11875;49.356;2.718;2023-02-15T13:29:21;12.10;99.90
23405;DHT22;11875;49.356;2.718;2023-02-15T13:31:49;12.10;99.90
23405;DHT22;11875;49.356;2.718;2023-02-15T13:34:31;12.20;99.90
23405;DHT22;11875;49.356;2.718;2023-02-15T13:37:17;12.20;99.90
23405;DHT22;11875;49.356;2.718;2023-02-15T13:42:46;12.30;99.90
23405;DHT22;11875;49.356;2.718;2023-02-15T13:48:10;12.30;99.90
23405;DHT22;11875;49.356;2.718;2023-02-15T13:50:48;12.40;99.90
23405;DHT22;11875;49.356;2.718;2023-02-15T14:10:02;12.60;99.90
23405;DHT22;11875;49.356;2.718;2023-02-15T14:12:50;12.70;99.90
23405;DHT22;11875;49.356;2.718;2023-02-15T14:29:08;12.40;99.90
23405;DHT22;11875;49.356;2.718;2023-02-15T14:31:34;12.30;99.90
23405;DHT22;11875;49.356;2.718;2023-02-15T14:34:03;12.30;99.90
23405;DHT22;11875;49.356;2.718;2023-02-15T14:36:30;12.30;99.90
23405;DHT22;11875;49.356;2.718;2023-02-15T14:42:29;12.50;99.90
23405;DHT22;11875;49.356;2.718;2023-02-15T14:47:42;12.50;99.90
23405;DHT22;11875;49.356;2.718;2023-02-15T14:53:38;12.60;99.90
23405;DHT22;11875;49.356;2.718;2023-02-15T14:58:55;12.50;99.90
23405;DHT22;11875;49.356;2.718;2023-02-15T15:01:30;12.40;99.90
23405;DHT22;11875;49.356;2.718;2023-02-15T15:04:04;12.40;99.90
23405;DHT22;11875;49.356;2.718;2023-02-15T15:06:33;12.20;99.90
23405;DHT22;11875;49.356;2.718;2023-02-15T15:09:22;12.30;99.90
23405;DHT22;11875;49.356;2.718;2023-02-15T15:11:52;12.30;99.90
23405;DHT22;11875;49.356;2.718;2023-02-15T15:14:44;12.30;99.90
23405;DHT22;11875;49.356;2.718;2023-02-15T15:20:11;12.30;99.90
23405;DHT22;11875;49.356;2.718;2023-02-15T15:22:40;12.20;99.90
23405;DHT22;11875;49.356;2.718;2023-02-15T15:25:10;12.20;99.90
23405;DHT22;11875;49.356;2.718;2023-02-15T15:35:50;12.20;99.90
23405;DHT22;11875;49.356;2.718;2023-02-15T15:49:49;11.90;99.90
23405;DHT22;11875;49.356;2.718;2023-02-15T15:52:18;11.90;99.90
23405;DHT22;11875;49.356;2.718;2023-02-15T15:54:47;11.80;99.90
23405;DHT22;11875;49.356;2.718;2023-02-15T15:57:31;11.80;99.90
23405;DHT22;11875;49.356;2.718;2023-02-15T15:59:58;11.70;99.90
23405;DHT22;11875;49.356;2.718;2023-02-15T16:02:27;11.70;99.90
23405;DHT22;11875;49.356;2.718;2023-02-15T16:04:53;11.70;99.90
23405;DHT22;11875;49.356;2.718;2023-02-15T16:10:05;11.50;99.90
23405;DHT22;11875;49.356;2.718;2023-02-15T16:12:36;11.60;99.90
23405;DHT22;11875;49.356;2.718;2023-02-15T16:15:24;11.60;99.90
23405;DHT22;11875;49.356;2.718;2023-02-15T16:17:56;11.60;99.90
23405;DHT22;11875;49.356;2.718;2023-02-15T16:20:31;11.60;99.90
23405;DHT22;11875;49.356;2.718;2023-02-15T16:28:39;11.60;99.90
23405;DHT22;11875;49.356;2.718;2023-02-15T16:31:12;11.50;99.90
23405;DHT22;11875;49.356;2.718;2023-02-15T16:33:40;11.50;99.90
23405;DHT22;11875;49.356;2.718;2023-02-15T16:36:19;11.50;99.90
23405;DHT22;11875;49.356;2.718;2023-02-15T16:39:06;11.50;99.90
23405;DHT22;11875;49.356;2.718;2023-02-15T16:41:32;11.50;99.90
23405;DHT22;11875;49.356;2.718;2023-02-15T16:44:04;11.60;99.90
23405;DHT22;11875;49.356;2.718;2023-02-15T16:46:33;11.60;99.90
23405;DHT22;11875;49.356;2.718;2023-02-15T16:49:04;11.50;99.90
23405;DHT22;11875;49.356;2.718;2023-02-15T16:51:34;11.30;99.90
23405;DHT22;11875;49.356;2.718;2023-02-15T16:54:07;11.20;99.90
23405;DHT22;11875;49.356;2.718;2023-02-15T16:56:39;11.20;99.90
23405;DHT22;11875;49.356;2.718;2023-02-15T16:59:22;11.20;99.90
23405;DHT22;11875;49.356;2.718;2023-02-15T17:01:51;11.30;99.90
23405;DHT22;11875;49.356;2.718;2023-02-15T17:07:05;11.20;99.90
23405;DHT22;11875;49.356;2.718;2023-02-15T17:09:32;11.10;99.90
23405;DHT22;11875;49.356;2.718;2023-02-15T17:11:59;10.90;99.90
23405;DHT22;11875;49.356;2.718;2023-02-15T17:14:29;11.00;99.90
23405;DHT22;11875;49.356;2.718;2023-02-15T17:17:05;11.00;99.90
23405;DHT22;11875;49.356;2.718;2023-02-15T17:19:44;11.00;99.90
23405;DHT22;11875;49.356;2.718;2023-02-15T17:22:24;10.90;99.90
23405;DHT22;11875;49.356;2.718;2023-02-15T17:24:58;10.90;99.90
23405;DHT22;11875;49.356;2.718;2023-02-15T17:27:26;11.00;99.90
23405;DHT22;11875;49.356;2.718;2023-02-15T17:29:57;11.00;99.90
23405;DHT22;11875;49.356;2.718;2023-02-15T17:32:26;11.00;99.90
23405;DHT22;11875;49.356;2.718;2023-02-15T17:35:21;11.00;99.90
23405;DHT22;11875;49.356;2.718;2023-02-15T17:37:49;10.90;99.90
23405;DHT22;11875;49.356;2.718;2023-02-15T17:40:28;10.90;99.90
23405;DHT22;11875;49.356;2.718;2023-02-15T17:42:54;10.80;99.90
23405;DHT22;11875;49.356;2.718;2023-02-15T17:45:20;10.80;99.90
23405;DHT22;11875;49.356;2.718;2023-02-15T17:47:48;10.80;99.90
23405;DHT22;11875;49.356;2.718;2023-02-15T17:50:25;10.80;99.90
23405;DHT22;11875;49.356;2.718;2023-02-15T17:52:53;10.70;99.90
23405;DHT22;11875;49.356;2.718;2023-02-15T17:55:21;10.70;99.90
23405;DHT22;11875;49.356;2.718;2023-02-15T17:58:16;10.70;99.90
23405;DHT22;11875;49.356;2.718;2023-02-15T18:00:54;10.70;99.90
23405;DHT22;11875;49.356;2.718;2023-02-15T18:03:48;10.70;99.90
23405;DHT22;11875;49.356;2.718;2023-02-15T18:06:35;10.60;99.90
23405;DHT22;11875;49.356;2.718;2023-02-15T18:09:21;10.50;99.90
23405;DHT22;11875;49.356;2.718;2023-02-15T18:14:47;10.40;99.90
23405;DHT22;11875;49.356;2.718;2023-02-15T18:17:13;10.20;99.90
23405;DHT22;11875;49.356;2.718;2023-02-15T18:19:41;10.20;99.90
23405;DHT22;11875;49.356;2.718;2023-02-15T18:22:15;10.20;99.90
23405;DHT22;11875;49.356;2.718;2023-02-15T18:24:41;10.10;99.90
23405;DHT22;11875;49.356;2.718;2023-02-15T18:27:07;10.00;99.90
23405;DHT22;11875;49.356;2.718;2023-02-15T18:29:32;9.90;99.90
23405;DHT22;11875;49.356;2.718;2023-02-15T18:31:59;9.90;99.90
23405;DHT22;11875;49.356;2.718;2023-02-15T18:34:32;9.90;99.90
23405;DHT22;11875;49.356;2.718;2023-02-15T18:37:00;9.90;99.90
23405;DHT22;11875;49.356;2.718;2023-02-15T18:39:35;10.00;99.90
23405;DHT22;11875;49.356;2.718;2023-02-15T18:42:02;10.00;99.90
23405;DHT22;11875;49.356;2.718;2023-02-15T18:44:28;10.00;99.90
23405;DHT22;11875;49.356;2.718;2023-02-15T18:46:54;10.00;99.90
23405;DHT22;11875;49.356;2.718;2023-02-15T18:49:20;10.00;99.90
23405;DHT22;11875;49.356;2.718;2023-02-15T18:51:47;9.90;99.90
23405;DHT22;11875;49.356;2.718;2023-02-15T18:54:20;10.00;99.90
23405;DHT22;11875;49.356;2.718;2023-02-15T18:56:54;10.00;99.90
23405;DHT22;11875;49.356;2.718;2023-02-15T18:59:21;9.90;99.90
23405;DHT22;11875;49.356;2.718;2023-02-15T19:01:48;9.90;99.90
23405;DHT22;11875;49.356;2.718;2023-02-15T19:04:13;9.90;99.90
23405;DHT22;11875;49.356;2.718;2023-02-15T19:06:44;9.90;99.90
23405;DHT22;11875;49.356;2.718;2023-02-15T19:09:22;9.90;99.90
23405;DHT22;11875;49.356;2.718;2023-02-15T19:11:55;9.90;99.90
23405;DHT22;11875;49.356;2.718;2023-02-15T19:14:29;9.80;99.90
23405;DHT22;11875;49.356;2.718;2023-02-15T19:16:57;9.70;99.90
23405;DHT22;11875;49.356;2.718;2023-02-15T19:19:23;9.60;99.90
23405;DHT22;11875;49.356;2.718;2023-02-15T19:21:49;9.60;99.90
23405;DHT22;11875;49.356;2.718;2023-02-15T19:24:18;9.60;99.90
23405;DHT22;11875;49.356;2.718;2023-02-15T19:26:45;9.60;99.90
23405;DHT22;11875;49.356;2.718;2023-02-15T19:29:13;9.60;99.90